sensor_id;sensor_type;location;lat;lon;timestamp;P1;durP1;ratioP1;P2;durP2;ratioP2
69551;SDS011;63774;45.292;11.784;2023-12-04T00:00:55;10.50;;;6.60;;
69551;SDS011;63774;45.292;11.784;2023-12-04T00:03:20;11.60;;;6.70;;
69551;SDS011;63774;45.292;11.784;2023-12-04T00:05:45;11.90;;;6.90;;
69551;SDS011;63774;45.292;11.784;2023-12-04T00:08:11;10.80;;;6.40;;
69551;SDS011;63774;45.292;11.784;2023-12-04T00:10:36;12.10;;;7.40;;
69551;SDS011;63774;45.292;11.784;2023-12-04T00:13:02;11.20;;;7.00;;
69551;SDS011;63774;45.292;11.784;2023-12-04T00:15:27;10.50;;;6.80;;
69551;SDS011;63774;45.292;11.784;2023-12-04T00:17:52;9.90;;;6.70;;
69551;SDS011;63774;45.292;11.784;2023-12-04T00:20:18;10.70;;;6.70;;
69551;SDS011;63774;45.292;11.784;2023-12-04T00:22:43;11.20;;;6.60;;
69551;SDS011;63774;45.292;11.784;2023-12-04T00:25:08;11.50;;;7.20;;
69551;SDS011;63774;45.292;11.784;2023-12-04T00:27:34;12.10;;;7.40;;
69551;SDS011;63774;45.292;11.784;2023-12-04T00:29:59;10.20;;;6.50;;
69551;SDS011;63774;45.292;11.784;2023-12-04T00:32:24;9.10;;;6.30;;
69551;SDS011;63774;45.292;11.784;2023-12-04T00:34:50;10.20;;;6.40;;
69551;SDS011;63774;45.292;11.784;2023-12-04T00:37:15;10.10;;;6.60;;
69551;SDS011;63774;45.292;11.784;2023-12-04T00:39:40;11.30;;;6.40;;
69551;SDS011;63774;45.292;11.784;2023-12-04T00:42:06;11.40;;;6.40;;
69551;SDS011;63774;45.292;11.784;2023-12-04T00:44:34;11.30;;;7.00;;
69551;SDS011;63774;45.292;11.784;2023-12-04T00:46:59;10.10;;;6.80;;
69551;SDS011;63774;45.292;11.784;2023-12-04T00:49:25;10.60;;;6.90;;
69551;SDS011;63774;45.292;11.784;2023-12-04T00:51:50;10.70;;;7.00;;
69551;SDS011;63774;45.292;11.784;2023-12-04T00:54:15;11.00;;;7.00;;
69551;SDS011;63774;45.292;11.784;2023-12-04T00:56:41;9.50;;;6.30;;
69551;SDS011;63774;45.292;11.784;2023-12-04T00:59:09;10.80;;;6.80;;
69551;SDS011;63774;45.292;11.784;2023-12-04T01:01:37;10.60;;;7.20;;
69551;SDS011;63774;45.292;11.784;2023-12-04T01:04:08;10.70;;;7.20;;
69551;SDS011;63774;45.292;11.784;2023-12-04T01:06:34;11.60;;;6.80;;
69551;SDS011;63774;45.292;11.784;2023-12-04T01:08:59;10.20;;;6.90;;
69551;SDS011;63774;45.292;11.784;2023-12-04T01:11:24;10.10;;;6.70;;
69551;SDS011;63774;45.292;11.784;2023-12-04T01:13:51;11.20;;;7.00;;
69551;SDS011;63774;45.292;11.784;2023-12-04T01:16:16;11.20;;;7.40;;
69551;SDS011;63774;45.292;11.784;2023-12-04T01:18:42;10.40;;;6.70;;
69551;SDS011;63774;45.292;11.784;2023-12-04T01:21:10;10.60;;;6.60;;
69551;SDS011;63774;45.292;11.784;2023-12-04T01:23:36;10.70;;;6.90;;
69551;SDS011;63774;45.292;11.784;2023-12-04T01:26:01;10.60;;;6.80;;
69551;SDS011;63774;45.292;11.784;2023-12-04T01:28:27;10.70;;;6.90;;
69551;SDS011;63774;45.292;11.784;2023-12-04T01:30:55;10.70;;;6.90;;
69551;SDS011;63774;45.292;11.784;2023-12-04T01:33:23;9.00;;;6.50;;
69551;SDS011;63774;45.292;11.784;2023-12-04T01:35:49;10.50;;;6.80;;
69551;SDS011;63774;45.292;11.784;2023-12-04T01:38:14;10.10;;;6.70;;
69551;SDS011;63774;45.292;11.784;2023-12-04T01:40:40;10.10;;;7.00;;
69551;SDS011;63774;45.292;11.784;2023-12-04T01:43:05;10.30;;;6.90;;
69551;SDS011;63774;45.292;11.784;2023-12-04T01:45:31;9.90;;;6.50;;
69551;SDS011;63774;45.292;11.784;2023-12-04T01:47:56;10.30;;;6.50;;
69551;SDS011;63774;45.292;11.784;2023-12-04T01:50:22;10.30;;;7.00;;
69551;SDS011;63774;45.292;11.784;2023-12-04T01:52:48;9.70;;;6.60;;
69551;SDS011;63774;45.292;11.784;2023-12-04T01:55:14;9.80;;;6.90;;
69551;SDS011;63774;45.292;11.784;2023-12-04T01:57:40;10.60;;;6.70;;
69551;SDS011;63774;45.292;11.784;2023-12-04T02:00:05;10.80;;;6.60;;
69551;SDS011;63774;45.292;11.784;2023-12-04T02:02:36;9.80;;;6.50;;
69551;SDS011;63774;45.292;11.784;2023-12-04T02:05:01;10.40;;;6.70;;
69551;SDS011;63774;45.292;11.784;2023-12-04T02:07:27;10.50;;;6.50;;
69551;SDS011;63774;45.292;11.784;2023-12-04T02:09:53;8.80;;;6.10;;
69551;SDS011;63774;45.292;11.784;2023-12-04T02:12:18;10.40;;;6.60;;
69551;SDS011;63774;45.292;11.784;2023-12-04T02:14:43;9.60;;;6.70;;
69551;SDS011;63774;45.292;11.784;2023-12-04T02:17:09;10.50;;;6.60;;
69551;SDS011;63774;45.292;11.784;2023-12-04T02:19:36;8.90;;;6.40;;
69551;SDS011;63774;45.292;11.784;2023-12-04T02:22:01;10.70;;;6.50;;
69551;SDS011;63774;45.292;11.784;2023-12-04T02:24:26;9.40;;;6.50;;
69551;SDS011;63774;45.292;11.784;2023-12-04T02:29:29;10.00;;;6.50;;
69551;SDS011;63774;45.292;11.784;2023-12-04T02:31:55;10.00;;;6.90;;
69551;SDS011;63774;45.292;11.784;2023-12-04T02:34:21;9.30;;;6.40;;
69551;SDS011;63774;45.292;11.784;2023-12-04T02:36:47;8.60;;;6.00;;
69551;SDS011;63774;45.292;11.784;2023-12-04T02:39:13;9.60;;;6.60;;
69551;SDS011;63774;45.292;11.784;2023-12-04T02:41:38;10.80;;;6.50;;
69551;SDS011;63774;45.292;11.784;2023-12-04T02:44:04;9.10;;;6.00;;
69551;SDS011;63774;45.292;11.784;2023-12-04T02:46:29;9.20;;;6.20;;
69551;SDS011;63774;45.292;11.784;2023-12-04T02:48:55;9.80;;;6.80;;
69551;SDS011;63774;45.292;11.784;2023-12-04T02:51:23;9.50;;;6.90;;
69551;SDS011;63774;45.292;11.784;2023-12-04T02:53:54;10.00;;;6.70;;
69551;SDS011;63774;45.292;11.784;2023-12-04T02:56:20;10.00;;;6.50;;
69551;SDS011;63774;45.292;11.784;2023-12-04T02:58:45;9.90;;;6.60;;
69551;SDS011;63774;45.292;11.784;2023-12-04T03:01:11;9.30;;;6.30;;
69551;SDS011;63774;45.292;11.784;2023-12-04T03:03:36;9.70;;;6.50;;
69551;SDS011;63774;45.292;11.784;2023-12-04T03:06:04;9.80;;;6.40;;
69551;SDS011;63774;45.292;11.784;2023-12-04T03:08:29;9.70;;;6.60;;
69551;SDS011;63774;45.292;11.784;2023-12-04T03:10:55;10.50;;;7.10;;
69551;SDS011;63774;45.292;11.784;2023-12-04T03:13:20;8.90;;;6.00;;
69551;SDS011;63774;45.292;11.784;2023-12-04T03:15:45;9.00;;;6.50;;
69551;SDS011;63774;45.292;11.784;2023-12-04T03:18:11;9.10;;;6.10;;
69551;SDS011;63774;45.292;11.784;2023-12-04T03:20:36;9.50;;;6.40;;
69551;SDS011;63774;45.292;11.784;2023-12-04T03:23:01;9.50;;;6.40;;
69551;SDS011;63774;45.292;11.784;2023-12-04T03:25:26;9.00;;;6.10;;
69551;SDS011;63774;45.292;11.784;2023-12-04T03:27:52;10.00;;;7.10;;
69551;SDS011;63774;45.292;11.784;2023-12-04T03:30:17;9.30;;;6.30;;
69551;SDS011;63774;45.292;11.784;2023-12-04T03:32:43;9.30;;;6.40;;
69551;SDS011;63774;45.292;11.784;2023-12-04T03:35:08;8.10;;;6.20;;
69551;SDS011;63774;45.292;11.784;2023-12-04T03:37:33;9.80;;;6.70;;
69551;SDS011;63774;45.292;11.784;2023-12-04T03:39:59;9.90;;;6.90;;
69551;SDS011;63774;45.292;11.784;2023-12-04T03:42:24;9.10;;;6.30;;
69551;SDS011;63774;45.292;11.784;2023-12-04T03:44:49;9.40;;;6.30;;
69551;SDS011;63774;45.292;11.784;2023-12-04T03:47:15;10.20;;;6.60;;
69551;SDS011;63774;45.292;11.784;2023-12-04T03:49:40;9.20;;;6.40;;
69551;SDS011;63774;45.292;11.784;2023-12-04T03:52:05;11.30;;;6.50;;
69551;SDS011;63774;45.292;11.784;2023-12-04T03:54:31;9.60;;;6.50;;
69551;SDS011;63774;45.292;11.784;2023-12-04T03:56:56;9.20;;;6.20;;
69551;SDS011;63774;45.292;11.784;2023-12-04T03:59:21;9.20;;;6.50;;
69551;SDS011;63774;45.292;11.784;2023-12-04T04:01:47;8.70;;;6.10;;
69551;SDS011;63774;45.292;11.784;2023-12-04T04:04:12;9.30;;;6.50;;
69551;SDS011;63774;45.292;11.784;2023-12-04T04:06:37;9.50;;;6.40;;
69551;SDS011;63774;45.292;11.784;2023-12-04T04:09:04;9.50;;;6.50;;
69551;SDS011;63774;45.292;11.784;2023-12-04T04:11:29;9.40;;;6.40;;
69551;SDS011;63774;45.292;11.784;2023-12-04T04:13:54;9.20;;;6.20;;
69551;SDS011;63774;45.292;11.784;2023-12-04T04:16:19;8.20;;;5.80;;
69551;SDS011;63774;45.292;11.784;2023-12-04T04:18:45;8.90;;;6.10;;
69551;SDS011;63774;45.292;11.784;2023-12-04T04:21:10;9.30;;;6.70;;
69551;SDS011;63774;45.292;11.784;2023-12-04T04:23:35;7.60;;;5.40;;
69551;SDS011;63774;45.292;11.784;2023-12-04T04:26:01;8.40;;;6.00;;
69551;SDS011;63774;45.292;11.784;2023-12-04T04:28:26;9.10;;;6.30;;
69551;SDS011;63774;45.292;11.784;2023-12-04T04:30:51;8.70;;;6.00;;
69551;SDS011;63774;45.292;11.784;2023-12-04T04:33:17;8.30;;;6.00;;
69551;SDS011;63774;45.292;11.784;2023-12-04T04:35:42;8.80;;;6.30;;
69551;SDS011;63774;45.292;11.784;2023-12-04T04:38:08;8.70;;;5.50;;
69551;SDS011;63774;45.292;11.784;2023-12-04T04:40:34;8.20;;;5.90;;
69551;SDS011;63774;45.292;11.784;2023-12-04T04:42:59;9.10;;;6.20;;
69551;SDS011;63774;45.292;11.784;2023-12-04T04:45:24;8.40;;;5.90;;
69551;SDS011;63774;45.292;11.784;2023-12-04T04:47:49;9.40;;;6.10;;
69551;SDS011;63774;45.292;11.784;2023-12-04T04:50:15;9.30;;;5.90;;
69551;SDS011;63774;45.292;11.784;2023-12-04T04:52:40;8.10;;;5.70;;
69551;SDS011;63774;45.292;11.784;2023-12-04T04:55:05;7.90;;;5.90;;
69551;SDS011;63774;45.292;11.784;2023-12-04T04:57:31;8.50;;;6.10;;
69551;SDS011;63774;45.292;11.784;2023-12-04T04:59:56;8.60;;;6.00;;
69551;SDS011;63774;45.292;11.784;2023-12-04T05:02:21;9.10;;;5.80;;
69551;SDS011;63774;45.292;11.784;2023-12-04T05:04:47;8.30;;;5.90;;
69551;SDS011;63774;45.292;11.784;2023-12-04T05:07:12;9.40;;;6.40;;
69551;SDS011;63774;45.292;11.784;2023-12-04T05:09:38;9.30;;;6.00;;
69551;SDS011;63774;45.292;11.784;2023-12-04T05:12:03;8.90;;;5.60;;
69551;SDS011;63774;45.292;11.784;2023-12-04T05:14:28;7.80;;;5.60;;
69551;SDS011;63774;45.292;11.784;2023-12-04T05:16:54;8.50;;;5.90;;
69551;SDS011;63774;45.292;11.784;2023-12-04T05:19:19;8.30;;;6.00;;
69551;SDS011;63774;45.292;11.784;2023-12-04T05:21:45;9.60;;;6.40;;
69551;SDS011;63774;45.292;11.784;2023-12-04T05:24:10;8.10;;;5.90;;
69551;SDS011;63774;45.292;11.784;2023-12-04T05:26:35;8.80;;;5.80;;
69551;SDS011;63774;45.292;11.784;2023-12-04T05:29:00;9.90;;;6.20;;
69551;SDS011;63774;45.292;11.784;2023-12-04T05:31:26;8.10;;;6.00;;
69551;SDS011;63774;45.292;11.784;2023-12-04T05:33:52;9.50;;;5.70;;
69551;SDS011;63774;45.292;11.784;2023-12-04T05:36:18;8.50;;;6.10;;
69551;SDS011;63774;45.292;11.784;2023-12-04T05:38:43;8.60;;;6.10;;
69551;SDS011;63774;45.292;11.784;2023-12-04T05:41:08;8.40;;;5.90;;
69551;SDS011;63774;45.292;11.784;2023-12-04T05:43:34;8.20;;;5.70;;
69551;SDS011;63774;45.292;11.784;2023-12-04T05:45:59;8.30;;;5.80;;
69551;SDS011;63774;45.292;11.784;2023-12-04T05:48:24;8.80;;;6.00;;
69551;SDS011;63774;45.292;11.784;2023-12-04T05:50:50;7.50;;;5.70;;
69551;SDS011;63774;45.292;11.784;2023-12-04T05:53:15;9.00;;;5.90;;
69551;SDS011;63774;45.292;11.784;2023-12-04T05:55:41;8.20;;;5.90;;
69551;SDS011;63774;45.292;11.784;2023-12-04T05:58:06;8.70;;;5.90;;
69551;SDS011;63774;45.292;11.784;2023-12-04T06:00:31;9.30;;;6.20;;
69551;SDS011;63774;45.292;11.784;2023-12-04T06:02:57;8.20;;;5.50;;
69551;SDS011;63774;45.292;11.784;2023-12-04T06:05:22;8.10;;;5.40;;
69551;SDS011;63774;45.292;11.784;2023-12-04T06:07:48;9.50;;;6.10;;
69551;SDS011;63774;45.292;11.784;2023-12-04T06:10:13;7.80;;;5.70;;
69551;SDS011;63774;45.292;11.784;2023-12-04T06:12:38;8.00;;;5.40;;
69551;SDS011;63774;45.292;11.784;2023-12-04T06:15:04;8.60;;;5.60;;
69551;SDS011;63774;45.292;11.784;2023-12-04T06:17:29;7.80;;;5.60;;
69551;SDS011;63774;45.292;11.784;2023-12-04T06:19:58;8.20;;;5.70;;
69551;SDS011;63774;45.292;11.784;2023-12-04T06:22:23;7.80;;;5.60;;
69551;SDS011;63774;45.292;11.784;2023-12-04T06:24:49;8.40;;;5.80;;
69551;SDS011;63774;45.292;11.784;2023-12-04T06:27:17;8.70;;;5.70;;
69551;SDS011;63774;45.292;11.784;2023-12-04T06:29:47;8.30;;;5.70;;
69551;SDS011;63774;45.292;11.784;2023-12-04T06:32:12;7.80;;;5.70;;
69551;SDS011;63774;45.292;11.784;2023-12-04T06:34:38;8.50;;;5.70;;
69551;SDS011;63774;45.292;11.784;2023-12-04T06:37:03;8.80;;;5.50;;
69551;SDS011;63774;45.292;11.784;2023-12-04T06:39:32;8.10;;;5.60;;
69551;SDS011;63774;45.292;11.784;2023-12-04T06:41:58;8.40;;;5.90;;
69551;SDS011;63774;45.292;11.784;2023-12-04T06:44:23;8.70;;;5.90;;
69551;SDS011;63774;45.292;11.784;2023-12-04T06:46:49;9.10;;;5.70;;
69551;SDS011;63774;45.292;11.784;2023-12-04T06:49:16;7.80;;;5.50;;
69551;SDS011;63774;45.292;11.784;2023-12-04T06:51:42;9.30;;;5.80;;
69551;SDS011;63774;45.292;11.784;2023-12-04T06:54:07;9.00;;;5.70;;
69551;SDS011;63774;45.292;11.784;2023-12-04T06:56:33;7.80;;;5.30;;
69551;SDS011;63774;45.292;11.784;2023-12-04T06:58:58;8.00;;;5.10;;
69551;SDS011;63774;45.292;11.784;2023-12-04T07:01:23;7.20;;;5.30;;
69551;SDS011;63774;45.292;11.784;2023-12-04T07:03:49;7.40;;;5.60;;
69551;SDS011;63774;45.292;11.784;2023-12-04T07:06:14;7.90;;;5.10;;
69551;SDS011;63774;45.292;11.784;2023-12-04T07:08:39;8.30;;;5.40;;
69551;SDS011;63774;45.292;11.784;2023-12-04T07:11:05;7.60;;;5.40;;
69551;SDS011;63774;45.292;11.784;2023-12-04T07:13:32;8.80;;;5.80;;
69551;SDS011;63774;45.292;11.784;2023-12-04T07:15:57;6.80;;;5.10;;
69551;SDS011;63774;45.292;11.784;2023-12-04T07:18:24;8.60;;;5.90;;
69551;SDS011;63774;45.292;11.784;2023-12-04T07:20:50;8.20;;;5.60;;
69551;SDS011;63774;45.292;11.784;2023-12-04T07:23:15;8.40;;;5.30;;
69551;SDS011;63774;45.292;11.784;2023-12-04T07:25:40;7.60;;;5.50;;
69551;SDS011;63774;45.292;11.784;2023-12-04T07:28:06;7.70;;;5.00;;
69551;SDS011;63774;45.292;11.784;2023-12-04T07:30:31;7.50;;;5.10;;
69551;SDS011;63774;45.292;11.784;2023-12-04T07:32:57;7.60;;;5.20;;
69551;SDS011;63774;45.292;11.784;2023-12-04T07:35:22;7.70;;;5.20;;
69551;SDS011;63774;45.292;11.784;2023-12-04T07:37:47;6.80;;;4.90;;
69551;SDS011;63774;45.292;11.784;2023-12-04T07:40:13;7.30;;;4.90;;
69551;SDS011;63774;45.292;11.784;2023-12-04T07:42:39;7.80;;;5.00;;
69551;SDS011;63774;45.292;11.784;2023-12-04T07:45:07;8.00;;;5.30;;
69551;SDS011;63774;45.292;11.784;2023-12-04T07:47:33;7.90;;;5.20;;
69551;SDS011;63774;45.292;11.784;2023-12-04T07:49:58;7.50;;;5.30;;
69551;SDS011;63774;45.292;11.784;2023-12-04T07:52:26;7.40;;;4.90;;
69551;SDS011;63774;45.292;11.784;2023-12-04T07:54:55;7.30;;;5.30;;
69551;SDS011;63774;45.292;11.784;2023-12-04T07:57:20;7.40;;;4.80;;
69551;SDS011;63774;45.292;11.784;2023-12-04T07:59:45;6.50;;;4.70;;
69551;SDS011;63774;45.292;11.784;2023-12-04T08:02:13;6.50;;;4.70;;
69551;SDS011;63774;45.292;11.784;2023-12-04T08:04:39;7.60;;;5.00;;
69551;SDS011;63774;45.292;11.784;2023-12-04T08:07:04;7.50;;;5.10;;
69551;SDS011;63774;45.292;11.784;2023-12-04T08:09:30;7.70;;;5.30;;
69551;SDS011;63774;45.292;11.784;2023-12-04T08:11:55;7.50;;;5.60;;
69551;SDS011;63774;45.292;11.784;2023-12-04T08:14:20;7.90;;;5.10;;
69551;SDS011;63774;45.292;11.784;2023-12-04T08:16:53;7.10;;;5.00;;
69551;SDS011;63774;45.292;11.784;2023-12-04T08:19:18;6.70;;;5.00;;
69551;SDS011;63774;45.292;11.784;2023-12-04T08:21:46;7.00;;;4.70;;
69551;SDS011;63774;45.292;11.784;2023-12-04T08:24:15;6.90;;;4.70;;
69551;SDS011;63774;45.292;11.784;2023-12-04T08:26:43;6.60;;;4.70;;
69551;SDS011;63774;45.292;11.784;2023-12-04T08:29:08;7.00;;;4.70;;
69551;SDS011;63774;45.292;11.784;2023-12-04T08:31:34;7.80;;;4.70;;
69551;SDS011;63774;45.292;11.784;2023-12-04T08:33:59;7.40;;;5.00;;
69551;SDS011;63774;45.292;11.784;2023-12-04T08:36:24;7.10;;;5.40;;
69551;SDS011;63774;45.292;11.784;2023-12-04T08:38:52;7.30;;;4.50;;
69551;SDS011;63774;45.292;11.784;2023-12-04T08:41:18;7.00;;;4.80;;
69551;SDS011;63774;45.292;11.784;2023-12-04T08:43:46;8.10;;;5.00;;
69551;SDS011;63774;45.292;11.784;2023-12-04T08:46:12;7.00;;;4.70;;
69551;SDS011;63774;45.292;11.784;2023-12-04T08:48:41;8.30;;;4.80;;
69551;SDS011;63774;45.292;11.784;2023-12-04T08:51:07;7.60;;;5.20;;
69551;SDS011;63774;45.292;11.784;2023-12-04T08:53:33;9.40;;;5.20;;
69551;SDS011;63774;45.292;11.784;2023-12-04T08:55:58;7.40;;;5.00;;
69551;SDS011;63774;45.292;11.784;2023-12-04T08:58:24;6.80;;;4.50;;
69551;SDS011;63774;45.292;11.784;2023-12-04T09:00:49;6.90;;;4.60;;
69551;SDS011;63774;45.292;11.784;2023-12-04T09:03:17;6.60;;;4.70;;
69551;SDS011;63774;45.292;11.784;2023-12-04T09:05:44;7.60;;;4.60;;
69551;SDS011;63774;45.292;11.784;2023-12-04T09:08:09;7.40;;;4.90;;
69551;SDS011;63774;45.292;11.784;2023-12-04T09:10:35;7.00;;;4.80;;
69551;SDS011;63774;45.292;11.784;2023-12-04T09:13:00;7.90;;;5.00;;
69551;SDS011;63774;45.292;11.784;2023-12-04T09:15:25;8.50;;;4.90;;
69551;SDS011;63774;45.292;11.784;2023-12-04T09:17:51;6.70;;;4.50;;
69551;SDS011;63774;45.292;11.784;2023-12-04T09:20:16;7.00;;;4.80;;
69551;SDS011;63774;45.292;11.784;2023-12-04T09:22:41;7.50;;;4.70;;
69551;SDS011;63774;45.292;11.784;2023-12-04T09:25:06;6.80;;;4.90;;
69551;SDS011;63774;45.292;11.784;2023-12-04T09:27:33;7.00;;;4.70;;
69551;SDS011;63774;45.292;11.784;2023-12-04T09:29:59;6.40;;;4.30;;
69551;SDS011;63774;45.292;11.784;2023-12-04T09:32:27;8.10;;;4.80;;
69551;SDS011;63774;45.292;11.784;2023-12-04T09:34:52;8.50;;;4.60;;
69551;SDS011;63774;45.292;11.784;2023-12-04T09:37:18;6.80;;;4.30;;
69551;SDS011;63774;45.292;11.784;2023-12-04T09:39:43;7.60;;;4.80;;
69551;SDS011;63774;45.292;11.784;2023-12-04T09:42:08;7.20;;;4.40;;
69551;SDS011;63774;45.292;11.784;2023-12-04T09:44:34;7.50;;;4.40;;
69551;SDS011;63774;45.292;11.784;2023-12-04T09:47:01;8.30;;;4.30;;
69551;SDS011;63774;45.292;11.784;2023-12-04T09:49:27;9.10;;;4.60;;
69551;SDS011;63774;45.292;11.784;2023-12-04T09:51:53;8.30;;;4.60;;
69551;SDS011;63774;45.292;11.784;2023-12-04T09:54:18;9.00;;;4.50;;
69551;SDS011;63774;45.292;11.784;2023-12-04T09:56:44;8.40;;;4.90;;
69551;SDS011;63774;45.292;11.784;2023-12-04T09:59:10;18.20;;;5.70;;
69551;SDS011;63774;45.292;11.784;2023-12-04T10:01:37;47.90;;;10.90;;
69551;SDS011;63774;45.292;11.784;2023-12-04T10:04:03;49.00;;;10.80;;
69551;SDS011;63774;45.292;11.784;2023-12-04T10:06:30;43.30;;;9.60;;
69551;SDS011;63774;45.292;11.784;2023-12-04T10:08:56;43.30;;;9.60;;
69551;SDS011;63774;45.292;11.784;2023-12-04T10:11:23;40.20;;;9.00;;
69551;SDS011;63774;45.292;11.784;2023-12-04T10:13:48;45.90;;;9.60;;
69551;SDS011;63774;45.292;11.784;2023-12-04T10:16:14;44.40;;;10.00;;
69551;SDS011;63774;45.292;11.784;2023-12-04T10:18:39;38.40;;;9.00;;
69551;SDS011;63774;45.292;11.784;2023-12-04T10:21:04;32.20;;;9.20;;
69551;SDS011;63774;45.292;11.784;2023-12-04T10:23:42;41.80;;;10.20;;
69551;SDS011;63774;45.292;11.784;2023-12-04T10:26:08;31.30;;;8.50;;
69551;SDS011;63774;45.292;11.784;2023-12-04T10:28:36;27.80;;;8.20;;
69551;SDS011;63774;45.292;11.784;2023-12-04T10:31:02;34.80;;;9.10;;
69551;SDS011;63774;45.292;11.784;2023-12-04T10:33:30;32.70;;;8.60;;
69551;SDS011;63774;45.292;11.784;2023-12-04T10:35:56;33.10;;;8.50;;
69551;SDS011;63774;45.292;11.784;2023-12-04T10:38:22;30.50;;;8.30;;
69551;SDS011;63774;45.292;11.784;2023-12-04T10:40:48;34.80;;;8.10;;
69551;SDS011;63774;45.292;11.784;2023-12-04T10:43:17;29.00;;;7.90;;
69551;SDS011;63774;45.292;11.784;2023-12-04T10:45:43;27.10;;;7.50;;
69551;SDS011;63774;45.292;11.784;2023-12-04T10:48:11;25.90;;;8.10;;
69551;SDS011;63774;45.292;11.784;2023-12-04T10:50:40;24.40;;;7.50;;
69551;SDS011;63774;45.292;11.784;2023-12-04T10:53:06;29.70;;;8.00;;
69551;SDS011;63774;45.292;11.784;2023-12-04T10:55:32;24.60;;;7.60;;
69551;SDS011;63774;45.292;11.784;2023-12-04T10:57:59;21.60;;;6.70;;
69551;SDS011;63774;45.292;11.784;2023-12-04T11:00:24;23.00;;;7.40;;
69551;SDS011;63774;45.292;11.784;2023-12-04T11:02:51;27.10;;;7.00;;
69551;SDS011;63774;45.292;11.784;2023-12-04T11:05:20;27.40;;;7.50;;
69551;SDS011;63774;45.292;11.784;2023-12-04T11:07:50;21.00;;;6.50;;
69551;SDS011;63774;45.292;11.784;2023-12-04T11:10:17;21.20;;;6.90;;
69551;SDS011;63774;45.292;11.784;2023-12-04T11:12:44;22.60;;;7.10;;
69551;SDS011;63774;45.292;11.784;2023-12-04T11:15:10;17.00;;;6.20;;
69551;SDS011;63774;45.292;11.784;2023-12-04T11:17:39;19.40;;;6.60;;
69551;SDS011;63774;45.292;11.784;2023-12-04T11:20:07;19.90;;;6.10;;
69551;SDS011;63774;45.292;11.784;2023-12-04T11:22:35;17.50;;;5.70;;
69551;SDS011;63774;45.292;11.784;2023-12-04T11:25:04;16.70;;;6.60;;
69551;SDS011;63774;45.292;11.784;2023-12-04T11:27:30;18.10;;;6.90;;
69551;SDS011;63774;45.292;11.784;2023-12-04T11:29:56;17.30;;;6.90;;
69551;SDS011;63774;45.292;11.784;2023-12-04T11:32:23;18.70;;;6.10;;
69551;SDS011;63774;45.292;11.784;2023-12-04T11:34:50;17.60;;;6.40;;
69551;SDS011;63774;45.292;11.784;2023-12-04T11:37:16;18.20;;;7.20;;
69551;SDS011;63774;45.292;11.784;2023-12-04T11:39:42;17.70;;;7.20;;
69551;SDS011;63774;45.292;11.784;2023-12-04T11:42:07;15.70;;;6.50;;
69551;SDS011;63774;45.292;11.784;2023-12-04T11:44:34;15.10;;;6.30;;
69551;SDS011;63774;45.292;11.784;2023-12-04T11:47:03;17.50;;;6.30;;
69551;SDS011;63774;45.292;11.784;2023-12-04T11:49:30;16.30;;;6.10;;
69551;SDS011;63774;45.292;11.784;2023-12-04T11:51:59;14.90;;;6.10;;
69551;SDS011;63774;45.292;11.784;2023-12-04T11:54:26;12.90;;;6.00;;
69551;SDS011;63774;45.292;11.784;2023-12-04T11:56:58;13.70;;;6.00;;
69551;SDS011;63774;45.292;11.784;2023-12-04T11:59:24;13.50;;;5.80;;
69551;SDS011;63774;45.292;11.784;2023-12-04T12:01:50;18.50;;;6.60;;
69551;SDS011;63774;45.292;11.784;2023-12-04T12:04:16;15.10;;;6.20;;
69551;SDS011;63774;45.292;11.784;2023-12-04T12:06:42;13.60;;;6.10;;
69551;SDS011;63774;45.292;11.784;2023-12-04T12:09:08;12.70;;;5.70;;
69551;SDS011;63774;45.292;11.784;2023-12-04T12:11:34;14.10;;;5.70;;
69551;SDS011;63774;45.292;11.784;2023-12-04T12:13:59;14.60;;;5.60;;
69551;SDS011;63774;45.292;11.784;2023-12-04T12:16:25;12.70;;;5.60;;
69551;SDS011;63774;45.292;11.784;2023-12-04T12:18:51;14.70;;;5.60;;
69551;SDS011;63774;45.292;11.784;2023-12-04T12:21:16;13.70;;;5.70;;
69551;SDS011;63774;45.292;11.784;2023-12-04T12:23:41;12.80;;;5.60;;
69551;SDS011;63774;45.292;11.784;2023-12-04T12:26:07;13.40;;;5.70;;
69551;SDS011;63774;45.292;11.784;2023-12-04T12:28:34;13.20;;;5.80;;
69551;SDS011;63774;45.292;11.784;2023-12-04T12:31:02;12.30;;;5.50;;
69551;SDS011;63774;45.292;11.784;2023-12-04T12:33:28;13.20;;;5.80;;
69551;SDS011;63774;45.292;11.784;2023-12-04T12:35:55;12.70;;;5.40;;
69551;SDS011;63774;45.292;11.784;2023-12-04T12:38:20;14.70;;;5.20;;
69551;SDS011;63774;45.292;11.784;2023-12-04T12:40:46;13.50;;;5.70;;
69551;SDS011;63774;45.292;11.784;2023-12-04T12:43:11;15.00;;;5.30;;
69551;SDS011;63774;45.292;11.784;2023-12-04T12:45:40;13.00;;;5.40;;
69551;SDS011;63774;45.292;11.784;2023-12-04T12:48:05;11.40;;;5.40;;
69551;SDS011;63774;45.292;11.784;2023-12-04T12:50:31;13.30;;;6.30;;
69551;SDS011;63774;45.292;11.784;2023-12-04T12:52:56;10.60;;;5.70;;
69551;SDS011;63774;45.292;11.784;2023-12-04T12:55:25;12.40;;;5.30;;
69551;SDS011;63774;45.292;11.784;2023-12-04T12:57:52;11.10;;;5.30;;
69551;SDS011;63774;45.292;11.784;2023-12-04T13:00:17;10.80;;;5.40;;
69551;SDS011;63774;45.292;11.784;2023-12-04T13:02:44;12.30;;;5.60;;
69551;SDS011;63774;45.292;11.784;2023-12-04T13:05:09;13.30;;;5.80;;
69551;SDS011;63774;45.292;11.784;2023-12-04T13:10:12;12.00;;;6.20;;
69551;SDS011;63774;45.292;11.784;2023-12-04T13:12:37;11.90;;;5.30;;
69551;SDS011;63774;45.292;11.784;2023-12-04T13:15:02;10.90;;;5.10;;
69551;SDS011;63774;45.292;11.784;2023-12-04T13:17:28;12.90;;;5.10;;
69551;SDS011;63774;45.292;11.784;2023-12-04T13:19:54;9.80;;;5.10;;
69551;SDS011;63774;45.292;11.784;2023-12-04T13:22:19;11.50;;;5.50;;
69551;SDS011;63774;45.292;11.784;2023-12-04T13:24:44;10.60;;;5.50;;
69551;SDS011;63774;45.292;11.784;2023-12-04T13:27:10;9.80;;;5.30;;
69551;SDS011;63774;45.292;11.784;2023-12-04T13:29:50;9.50;;;4.80;;
69551;SDS011;63774;45.292;11.784;2023-12-04T13:32:18;9.80;;;5.30;;
69551;SDS011;63774;45.292;11.784;2023-12-04T13:34:48;10.00;;;5.10;;
69551;SDS011;63774;45.292;11.784;2023-12-04T13:37:13;10.10;;;5.20;;
69551;SDS011;63774;45.292;11.784;2023-12-04T13:39:45;9.80;;;5.10;;
69551;SDS011;63774;45.292;11.784;2023-12-04T13:42:14;9.00;;;4.70;;
69551;SDS011;63774;45.292;11.784;2023-12-04T13:44:59;11.50;;;5.90;;
69551;SDS011;63774;45.292;11.784;2023-12-04T13:47:24;9.10;;;5.00;;
69551;SDS011;63774;45.292;11.784;2023-12-04T13:49:50;9.10;;;4.80;;
69551;SDS011;63774;45.292;11.784;2023-12-04T13:52:15;11.60;;;5.20;;
69551;SDS011;63774;45.292;11.784;2023-12-04T13:54:40;9.20;;;5.00;;
69551;SDS011;63774;45.292;11.784;2023-12-04T13:57:12;8.60;;;5.20;;
69551;SDS011;63774;45.292;11.784;2023-12-04T13:59:52;9.90;;;5.00;;
69551;SDS011;63774;45.292;11.784;2023-12-04T14:02:18;10.50;;;5.10;;
69551;SDS011;63774;45.292;11.784;2023-12-04T14:04:43;9.90;;;5.30;;
69551;SDS011;63774;45.292;11.784;2023-12-04T14:07:09;10.80;;;5.20;;
69551;SDS011;63774;45.292;11.784;2023-12-04T14:09:35;9.10;;;5.10;;
69551;SDS011;63774;45.292;11.784;2023-12-04T14:12:00;9.40;;;5.00;;
69551;SDS011;63774;45.292;11.784;2023-12-04T14:14:26;12.00;;;6.00;;
69551;SDS011;63774;45.292;11.784;2023-12-04T14:16:51;9.40;;;5.00;;
69551;SDS011;63774;45.292;11.784;2023-12-04T14:19:17;8.90;;;4.90;;
69551;SDS011;63774;45.292;11.784;2023-12-04T14:21:49;9.40;;;4.90;;
69551;SDS011;63774;45.292;11.784;2023-12-04T14:24:14;8.80;;;4.80;;
69551;SDS011;63774;45.292;11.784;2023-12-04T14:26:40;8.90;;;4.90;;